createdAt,value
2023-12-11T00:00:43.635Z,77.00
2023-12-11T00:03:13.341Z,76.90
2023-12-11T00:05:41.687Z,76.90
2023-12-11T00:08:09.911Z,76.90
2023-12-11T00:10:38.261Z,77.00
2023-12-11T00:13:06.701Z,77.00
2023-12-11T00:15:35.055Z,77.10
2023-12-11T00:18:03.527Z,77.20
2023-12-11T00:20:33.229Z,77.30
2023-12-11T00:23:01.875Z,77.30
2023-12-11T00:25:30.477Z,77.30
2023-12-11T00:27:58.759Z,77.30
2023-12-11T00:30:27.621Z,77.20
2023-12-11T00:32:55.888Z,77.20
2023-12-11T00:35:24.136Z,78.00
2023-12-11T00:37:53.758Z,77.20
2023-12-11T00:40:21.961Z,77.20
2023-12-11T00:42:50.251Z,77.10
2023-12-11T00:45:18.638Z,77.20
2023-12-11T00:47:46.948Z,77.20
2023-12-11T00:50:15.459Z,77.20
2023-12-11T00:52:43.685Z,77.20
2023-12-11T00:55:13.556Z,77.20
2023-12-11T00:57:41.806Z,77.20
2023-12-11T01:00:11.457Z,77.30
2023-12-11T01:02:42.686Z,77.20
2023-12-11T01:05:11.579Z,77.40
2023-12-11T01:07:39.848Z,77.60
2023-12-11T01:10:09.204Z,77.70
2023-12-11T01:12:38.975Z,77.90
2023-12-11T01:15:08.296Z,77.80
2023-12-11T01:17:40.281Z,77.60
2023-12-11T01:20:10.678Z,77.50
2023-12-11T01:22:38.917Z,77.30
2023-12-11T01:25:09.872Z,77.20
2023-12-11T01:27:40.137Z,77.10
2023-12-11T01:30:09.543Z,77.00
2023-12-11T01:32:37.862Z,77.00
2023-12-11T01:35:06.849Z,77.00
2023-12-11T01:37:35.067Z,77.00
2023-12-11T01:40:03.549Z,77.00
2023-12-11T01:42:31.893Z,76.90
2023-12-11T01:45:01.552Z,76.90
2023-12-11T01:47:30.191Z,77.00
2023-12-11T01:49:59.334Z,77.10
2023-12-11T01:52:28.769Z,77.10
2023-12-11T01:54:57.350Z,77.10
2023-12-11T01:57:25.687Z,77.30
2023-12-11T01:59:54.190Z,77.20
2023-12-11T02:02:24.168Z,77.20
2023-12-11T02:04:55.202Z,77.10
2023-12-11T02:07:23.758Z,77.70
2023-12-11T02:09:52.051Z,77.00
2023-12-11T02:12:20.330Z,77.00
2023-12-11T02:14:48.571Z,77.00
2023-12-11T02:17:16.997Z,76.90
2023-12-11T02:19:46.731Z,76.70
2023-12-11T02:22:16.066Z,76.60
2023-12-11T02:24:49.837Z,76.70
2023-12-11T02:27:19.604Z,76.60
2023-12-11T02:29:47.798Z,76.60
2023-12-11T02:32:18.256Z,76.60
2023-12-11T02:34:48.814Z,76.40
2023-12-11T02:37:17.430Z,76.50
2023-12-11T02:39:47.559Z,76.50
2023-12-11T02:42:15.980Z,76.50
2023-12-11T02:44:45.608Z,76.40
2023-12-11T02:47:13.842Z,76.30
2023-12-11T02:49:42.083Z,76.20
2023-12-11T02:52:10.378Z,76.30
2023-12-11T02:54:38.907Z,76.10
2023-12-11T02:57:07.469Z,76.00
2023-12-11T02:59:35.782Z,76.00
2023-12-11T03:02:06.099Z,76.00
2023-12-11T03:04:34.413Z,75.90
2023-12-11T03:07:03.224Z,76.10
2023-12-11T03:09:31.505Z,76.00
2023-12-11T03:11:59.712Z,75.90
2023-12-11T03:14:27.934Z,75.90
2023-12-11T03:16:56.282Z,75.90
2023-12-11T03:19:27.276Z,75.90
2023-12-11T03:21:57.013Z,75.90
2023-12-11T03:24:26.046Z,75.90
2023-12-11T03:26:54.305Z,76.00
2023-12-11T03:29:22.548Z,75.90
2023-12-11T03:31:50.765Z,75.90
2023-12-11T03:34:19.158Z,75.80
2023-12-11T03:36:49.011Z,75.90
2023-12-11T03:39:17.693Z,75.90
2023-12-11T03:41:46.613Z,76.00
2023-12-11T03:44:14.873Z,75.80
2023-12-11T03:46:43.080Z,76.40
2023-12-11T03:49:11.470Z,75.50
2023-12-11T03:51:39.784Z,75.40
2023-12-11T03:54:09.514Z,75.30
2023-12-11T03:56:37.845Z,75.30
2023-12-11T03:59:06.157Z,75.40
2023-12-11T04:01:34.469Z,75.40
2023-12-11T04:04:03.156Z,75.20
2023-12-11T04:06:31.693Z,75.10
2023-12-11T04:09:00.116Z,75.10
2023-12-11T04:11:29.747Z,75.20
2023-12-11T04:13:57.955Z,75.20
2023-12-11T04:16:26.169Z,75.20
2023-12-11T04:18:56.724Z,75.30
2023-12-11T04:21:26.836Z,75.30
2023-12-11T04:23:56.721Z,75.30
2023-12-11T04:26:25.360Z,75.30
2023-12-11T04:28:55.013Z,75.00
2023-12-11T04:31:24.601Z,74.90
2023-12-11T04:33:52.956Z,74.90
2023-12-11T04:36:21.296Z,74.60
2023-12-11T04:38:49.537Z,74.40
2023-12-11T04:41:17.758Z,74.20
2023-12-11T04:43:46.106Z,74.10
2023-12-11T04:46:15.966Z,74.00
2023-12-11T04:48:44.282Z,74.00
2023-12-11T04:51:13.171Z,74.00
2023-12-11T04:53:41.403Z,74.00
2023-12-11T04:56:10.638Z,73.80
2023-12-11T04:58:45.199Z,73.70
2023-12-11T05:01:13.492Z,73.40
2023-12-11T05:03:41.817Z,73.60
2023-12-11T05:06:10.808Z,73.40
2023-12-11T05:08:39.045Z,73.50
2023-12-11T05:11:08.063Z,73.50
2023-12-11T05:13:36.293Z,73.40
2023-12-11T05:16:06.660Z,73.40
2023-12-11T05:18:35.083Z,73.10
2023-12-11T05:21:08.220Z,73.10
2023-12-11T05:23:36.440Z,73.00
2023-12-11T05:26:05.073Z,73.00
2023-12-11T05:28:33.279Z,73.00
2023-12-11T05:31:01.546Z,73.00
2023-12-11T05:33:31.342Z,72.90
2023-12-11T05:35:59.576Z,72.70
2023-12-11T05:38:27.828Z,72.70
2023-12-11T05:40:56.054Z,72.80
2023-12-11T05:43:24.483Z,72.60
2023-12-11T05:45:52.732Z,72.70
2023-12-11T05:48:21.413Z,72.50
2023-12-11T05:50:51.450Z,72.40
2023-12-11T05:53:19.681Z,72.40
2023-12-11T05:55:47.968Z,72.40
2023-12-11T05:58:16.205Z,72.40
2023-12-11T06:00:45.947Z,72.40
2023-12-11T06:03:14.419Z,72.40
2023-12-11T06:05:42.862Z,72.40
2023-12-11T06:08:12.718Z,72.30
2023-12-11T06:10:40.918Z,72.30
2023-12-11T06:13:09.168Z,72.40
2023-12-11T06:15:37.463Z,72.50
2023-12-11T06:18:06.179Z,72.50
2023-12-11T06:20:34.535Z,72.70
2023-12-11T06:23:02.903Z,72.70
2023-12-11T06:25:33.132Z,72.80
2023-12-11T06:28:01.710Z,72.80
2023-12-11T06:30:29.952Z,73.00
2023-12-11T06:32:58.174Z,73.20
2023-12-11T06:35:26.496Z,73.50
2023-12-11T06:37:54.735Z,73.70
2023-12-11T06:40:23.126Z,74.00
2023-12-11T06:42:52.960Z,74.30
2023-12-11T06:45:21.240Z,74.50
2023-12-11T06:47:49.467Z,74.70
2023-12-11T06:50:21.001Z,74.90
2023-12-11T06:52:49.419Z,75.00
2023-12-11T06:55:17.876Z,75.10
2023-12-11T06:57:46.319Z,75.10
2023-12-11T07:00:16.605Z,75.00
2023-12-11T07:02:45.365Z,75.00
2023-12-11T07:05:13.768Z,75.00
2023-12-11T07:07:42.142Z,74.90
2023-12-11T07:10:11.356Z,74.70
2023-12-11T07:12:41.798Z,74.50
2023-12-11T07:15:10.822Z,75.10
2023-12-11T07:17:41.160Z,74.20
2023-12-11T07:20:12.569Z,74.20
2023-12-11T07:22:40.992Z,74.00
2023-12-11T07:25:09.905Z,73.90
2023-12-11T07:27:38.246Z,73.90
2023-12-11T07:30:07.884Z,73.80
2023-12-11T07:32:36.166Z,73.80
2023-12-11T07:35:09.550Z,73.70
2023-12-11T07:37:37.826Z,73.50
2023-12-11T07:40:07.136Z,73.20
2023-12-11T07:42:35.393Z,73.10
2023-12-11T07:45:06.189Z,72.90
2023-12-11T07:47:34.758Z,72.80
2023-12-11T07:50:05.645Z,72.80
2023-12-11T07:52:34.500Z,72.70
2023-12-11T07:55:02.779Z,72.50
2023-12-11T07:57:31.367Z,72.50
2023-12-11T07:59:59.927Z,72.40
2023-12-11T08:02:28.383Z,72.30
2023-12-11T08:04:56.752Z,72.20
2023-12-11T08:07:26.484Z,72.10
2023-12-11T08:09:54.809Z,72.10
2023-12-11T08:12:23.068Z,71.90
2023-12-11T08:14:51.278Z,71.80
2023-12-11T08:17:19.596Z,71.60
2023-12-11T08:19:47.905Z,71.40
2023-12-11T08:22:16.273Z,71.30
2023-12-11T08:24:46.246Z,71.30
2023-12-11T08:27:15.472Z,71.20
2023-12-11T08:29:43.742Z,71.30
2023-12-11T08:32:12.207Z,71.20
2023-12-11T08:34:40.569Z,71.10
2023-12-11T08:37:11.190Z,71.10
2023-12-11T08:39:40.855Z,71.00
2023-12-11T08:42:10.628Z,71.00
2023-12-11T08:44:38.830Z,70.90
2023-12-11T08:47:07.138Z,71.70
2023-12-11T08:49:35.675Z,71.00
2023-12-11T08:52:04.316Z,71.00
2023-12-11T08:54:32.877Z,71.10
2023-12-11T08:57:01.278Z,71.20
2023-12-11T08:59:32.163Z,71.50
2023-12-11T09:02:00.680Z,71.40
2023-12-11T09:04:29.192Z,71.60
2023-12-11T09:06:57.681Z,71.60
2023-12-11T09:09:26.059Z,71.80
2023-12-11T09:11:54.424Z,71.80
2023-12-11T09:14:22.748Z,71.90
2023-12-11T09:16:52.349Z,72.00
2023-12-11T09:19:31.769Z,71.90
2023-12-11T09:22:08.087Z,71.90
2023-12-11T09:24:36.424Z,71.80
2023-12-11T09:27:05.490Z,71.60
2023-12-11T09:29:34.561Z,71.60
2023-12-11T09:32:04.235Z,71.50
2023-12-11T09:34:32.796Z,71.50
2023-12-11T09:37:01.143Z,71.30
2023-12-11T09:39:29.406Z,71.00
2023-12-11T09:41:58.419Z,70.80
2023-12-11T09:44:27.780Z,70.90
2023-12-11T09:47:01.891Z,70.50
2023-12-11T09:49:32.029Z,70.50
2023-12-11T09:52:01.526Z,70.30
2023-12-11T09:54:29.971Z,70.00
2023-12-11T09:56:59.769Z,70.20
2023-12-11T09:59:29.016Z,70.30
2023-12-11T10:01:57.826Z,70.00
2023-12-11T10:04:26.235Z,70.00
2023-12-11T10:06:55.932Z,69.80
2023-12-11T10:09:30.870Z,69.50
2023-12-11T10:12:04.048Z,69.40
2023-12-11T10:14:32.866Z,69.50
2023-12-11T10:17:16.272Z,69.80
2023-12-11T10:19:44.751Z,69.80
2023-12-11T10:22:28.568Z,69.90
2023-12-11T10:24:57.049Z,70.00
2023-12-11T10:27:25.743Z,70.50
2023-12-11T10:30:09.537Z,71.00
2023-12-11T10:32:37.891Z,71.30
2023-12-11T10:35:07.746Z,71.30
2023-12-11T10:37:37.542Z,71.60
2023-12-11T10:40:07.370Z,71.70
2023-12-11T10:42:35.701Z,71.70
2023-12-11T10:45:04.203Z,71.50
2023-12-11T10:47:33.277Z,71.70
2023-12-11T10:50:03.998Z,71.80
2023-12-11T10:52:33.126Z,71.80
2023-12-11T10:55:02.893Z,71.80
2023-12-11T10:57:33.297Z,71.80
2023-12-11T11:00:02.556Z,71.90
2023-12-11T11:02:31.357Z,72.20
2023-12-11T11:05:00.421Z,72.40
2023-12-11T11:07:32.291Z,72.10
2023-12-11T11:10:07.755Z,71.70
2023-12-11T11:12:44.936Z,70.90
2023-12-11T11:15:13.267Z,70.80
2023-12-11T11:18:01.568Z,70.80
2023-12-11T11:20:30.830Z,70.20
2023-12-11T11:23:28.323Z,70.40
2023-12-11T11:25:58.253Z,70.50
2023-12-11T11:28:41.827Z,70.20
2023-12-11T11:31:19.585Z,70.00
2023-12-11T11:33:56.662Z,70.20
2023-12-11T11:36:46.016Z,70.50
2023-12-11T11:39:14.271Z,70.70
2023-12-11T11:41:45.337Z,71.00
2023-12-11T11:44:16.603Z,71.20
2023-12-11T11:46:52.970Z,70.80
2023-12-11T11:49:32.881Z,70.50
2023-12-11T11:52:01.664Z,70.50
2023-12-11T11:54:31.823Z,70.50
2023-12-11T11:57:01.596Z,70.20
2023-12-11T11:59:30.390Z,70.10
2023-12-11T12:02:00.126Z,70.20
2023-12-11T12:04:32.391Z,70.10
2023-12-11T12:07:03.742Z,69.80
2023-12-11T12:09:32.237Z,69.50
2023-12-11T12:12:02.349Z,69.40
2023-12-11T12:14:30.780Z,69.40
2023-12-11T12:16:59.092Z,68.70
2023-12-11T12:19:33.726Z,68.60
2023-12-11T12:22:03.759Z,68.40
2023-12-11T12:24:32.493Z,68.90
2023-12-11T12:27:04.609Z,68.80
2023-12-11T12:29:34.105Z,68.50
2023-12-11T12:32:03.129Z,68.60
2023-12-11T12:34:34.958Z,68.70
2023-12-11T12:37:03.873Z,68.30
2023-12-11T12:39:32.281Z,68.50
2023-12-11T12:42:02.698Z,68.20
2023-12-11T12:44:31.263Z,68.30
2023-12-11T12:47:03.834Z,68.90
2023-12-11T12:49:34.132Z,67.80
2023-12-11T12:52:02.847Z,67.80
2023-12-11T12:54:49.220Z,67.60
2023-12-11T12:57:20.494Z,66.80
2023-12-11T12:59:49.237Z,66.90
2023-12-11T13:02:18.836Z,66.40
2023-12-11T13:04:56.788Z,66.20
2023-12-11T13:07:28.076Z,65.60
2023-12-11T13:09:57.825Z,66.00
2023-12-11T13:12:27.931Z,65.80
2023-12-11T13:14:56.986Z,65.70
2023-12-11T13:17:25.295Z,65.90
2023-12-11T13:19:53.596Z,65.60
2023-12-11T13:22:21.937Z,65.60
2023-12-11T13:24:50.201Z,65.40
2023-12-11T13:27:18.454Z,65.60
2023-12-11T13:29:48.027Z,65.40
2023-12-11T13:32:16.428Z,65.20
2023-12-11T13:34:44.819Z,65.10
2023-12-11T13:37:13.256Z,65.30
2023-12-11T13:39:42.385Z,65.30
2023-12-11T13:42:10.826Z,65.10
2023-12-11T13:44:39.026Z,64.50
2023-12-11T13:47:08.800Z,64.60
2023-12-11T13:49:37.043Z,64.50
2023-12-11T13:52:05.950Z,64.60
2023-12-11T13:54:34.154Z,64.40
2023-12-11T13:57:02.433Z,64.50
2023-12-11T13:59:30.606Z,64.40
2023-12-11T14:02:01.102Z,64.20
2023-12-11T14:04:30.868Z,64.50
2023-12-11T14:06:59.657Z,64.30
2023-12-11T14:09:31.499Z,64.50
2023-12-11T14:12:01.414Z,64.60
2023-12-11T14:14:30.015Z,64.30
2023-12-11T14:16:59.263Z,64.40
2023-12-11T14:19:28.264Z,64.40
2023-12-11T14:21:57.982Z,64.30
2023-12-11T14:24:26.973Z,64.40
2023-12-11T14:26:57.442Z,64.40
2023-12-11T14:29:26.187Z,64.70
2023-12-11T14:31:54.383Z,64.60
2023-12-11T14:34:23.319Z,64.60
2023-12-11T14:36:51.659Z,64.80
2023-12-11T14:39:21.734Z,65.00
2023-12-11T14:41:49.984Z,65.10
2023-12-11T14:44:18.146Z,65.30
2023-12-11T14:46:46.374Z,65.70
2023-12-11T14:49:15.096Z,66.20
2023-12-11T14:51:43.374Z,66.60
2023-12-11T14:54:11.776Z,67.20
2023-12-11T14:56:41.547Z,67.80
2023-12-11T14:59:09.800Z,68.30
2023-12-11T15:01:38.988Z,68.60
2023-12-11T15:04:07.527Z,68.90
2023-12-11T15:06:37.249Z,69.20
2023-12-11T15:09:07.518Z,69.40
2023-12-11T15:11:36.415Z,69.90
2023-12-11T15:14:06.678Z,70.00
2023-12-11T15:16:39.433Z,70.40
2023-12-11T15:19:07.842Z,70.60
2023-12-11T15:21:36.545Z,70.60
2023-12-11T15:24:05.225Z,70.60
2023-12-11T15:26:33.521Z,70.70
2023-12-11T15:29:05.409Z,70.70
2023-12-11T15:31:35.259Z,70.90
2023-12-11T15:34:04.681Z,70.80
2023-12-11T15:36:32.958Z,70.90
2023-12-11T15:39:01.267Z,71.10
2023-12-11T15:41:29.758Z,71.20
2023-12-11T15:43:57.953Z,71.40
2023-12-11T15:46:26.504Z,71.50
2023-12-11T15:48:56.447Z,71.70
2023-12-11T15:51:26.989Z,72.00
2023-12-11T15:53:55.325Z,72.10
2023-12-11T15:56:23.960Z,72.30
2023-12-11T15:58:52.427Z,72.50
2023-12-11T16:01:20.823Z,72.40
2023-12-11T16:03:49.212Z,72.40
2023-12-11T16:06:20.021Z,72.40
2023-12-11T16:08:48.539Z,72.40
2023-12-11T16:11:17.169Z,72.20
2023-12-11T16:13:46.945Z,72.30
2023-12-11T16:16:17.176Z,72.60
2023-12-11T16:18:46.352Z,72.70
2023-12-11T16:21:15.375Z,72.70
2023-12-11T16:23:45.103Z,72.90
2023-12-11T16:26:16.727Z,72.80
2023-12-11T16:28:45.318Z,72.90
2023-12-11T16:31:22.304Z,73.00
2023-12-11T16:33:51.025Z,73.20
2023-12-11T16:36:19.496Z,73.10
2023-12-11T16:38:49.348Z,73.20
2023-12-11T16:41:26.236Z,73.20
2023-12-11T16:43:55.372Z,73.30
2023-12-11T16:46:24.051Z,72.90
2023-12-11T16:48:52.761Z,73.10
2023-12-11T16:51:21.474Z,73.00
2023-12-11T16:53:51.276Z,73.20
2023-12-11T16:56:19.728Z,73.30
2023-12-11T16:58:48.151Z,73.00
2023-12-11T17:01:16.828Z,72.90
2023-12-11T17:03:45.599Z,72.90
2023-12-11T17:06:17.605Z,72.90
2023-12-11T17:08:46.105Z,72.70
2023-12-11T17:11:16.116Z,72.90
2023-12-11T17:13:44.858Z,72.50
2023-12-11T17:16:13.432Z,72.20
2023-12-11T17:18:43.625Z,72.10
2023-12-11T17:21:22.107Z,72.00
2023-12-11T17:23:54.051Z,72.00
2023-12-11T17:26:24.357Z,72.10
2023-12-11T17:28:52.950Z,72.10
2023-12-11T17:31:21.422Z,72.20
2023-12-11T17:33:51.450Z,72.40
2023-12-11T17:36:20.076Z,72.60
2023-12-11T17:38:49.385Z,72.60
2023-12-11T17:41:17.839Z,72.80
2023-12-11T17:43:47.622Z,72.70
2023-12-11T17:46:16.176Z,72.70
2023-12-11T17:48:45.422Z,72.80
2023-12-11T17:51:13.891Z,72.70
2023-12-11T17:53:42.293Z,72.70
2023-12-11T17:56:12.475Z,72.70
2023-12-11T17:58:42.829Z,72.80
2023-12-11T18:01:14.057Z,72.90
2023-12-11T18:03:42.671Z,73.00
2023-12-11T18:06:17.546Z,73.00
2023-12-11T18:08:46.336Z,73.20
2023-12-11T18:11:14.965Z,73.90
2023-12-11T18:13:43.675Z,73.20
2023-12-11T18:16:14.821Z,73.30
2023-12-11T18:18:43.482Z,73.20
2023-12-11T18:21:11.996Z,73.20
2023-12-11T18:23:40.552Z,73.30
2023-12-11T18:26:12.995Z,73.40
2023-12-11T18:28:41.541Z,73.30
2023-12-11T18:31:10.264Z,73.50
2023-12-11T18:33:41.247Z,74.20
2023-12-11T18:36:10.677Z,73.60
2023-12-11T18:38:39.399Z,73.60
2023-12-11T18:41:08.035Z,73.50
2023-12-11T18:43:37.187Z,74.20
2023-12-11T18:46:06.148Z,73.40
2023-12-11T18:48:34.755Z,73.30
2023-12-11T18:51:04.830Z,73.30
2023-12-11T18:53:33.251Z,73.20
2023-12-11T18:56:02.126Z,73.10
2023-12-11T18:58:30.918Z,73.10
2023-12-11T19:01:01.026Z,73.10
2023-12-11T19:03:29.779Z,73.00
2023-12-11T19:05:58.314Z,73.10
2023-12-11T19:08:28.128Z,73.20
2023-12-11T19:10:56.549Z,73.20
2023-12-11T19:13:25.498Z,73.10
2023-12-11T19:15:54.259Z,73.20
2023-12-11T19:18:26.045Z,73.20
2023-12-11T19:20:54.822Z,73.10
2023-12-11T19:23:24.115Z,73.10
2023-12-11T19:25:53.996Z,73.10
2023-12-11T19:28:23.869Z,73.20
2023-12-11T19:30:52.605Z,73.30
2023-12-11T19:33:22.070Z,73.40
2023-12-11T19:35:51.469Z,73.30
2023-12-11T19:38:19.938Z,73.50
2023-12-11T19:40:48.321Z,73.70
2023-12-11T19:43:18.136Z,73.70
2023-12-11T19:45:47.371Z,73.80
2023-12-11T19:48:17.346Z,73.80
2023-12-11T19:50:45.864Z,73.80
2023-12-11T19:53:14.272Z,73.90
2023-12-11T19:55:42.804Z,74.00
2023-12-11T19:58:11.204Z,74.20
2023-12-11T20:00:40.961Z,74.40
2023-12-11T20:03:09.336Z,74.50
2023-12-11T20:05:37.771Z,74.70
2023-12-11T20:08:06.383Z,75.50
2023-12-11T20:10:34.823Z,74.70
2023-12-11T20:13:03.170Z,74.80
2023-12-11T20:15:31.738Z,74.90
2023-12-11T20:18:01.631Z,75.00
2023-12-11T20:20:30.003Z,74.80
2023-12-11T20:22:58.366Z,74.80
2023-12-11T20:25:26.717Z,74.90
2023-12-11T20:27:55.012Z,74.80
2023-12-11T20:30:23.281Z,74.90
2023-12-11T20:32:51.826Z,75.00
2023-12-11T20:35:21.527Z,75.20
2023-12-11T20:37:49.739Z,75.10
2023-12-11T20:40:18.162Z,75.10
2023-12-11T20:42:46.599Z,75.30
2023-12-11T20:45:16.723Z,75.50
2023-12-11T20:47:45.593Z,75.60
2023-12-11T20:50:13.892Z,75.80
2023-12-11T20:52:43.447Z,76.00
2023-12-11T20:55:12.426Z,76.20
2023-12-11T20:57:40.802Z,76.20
2023-12-11T21:00:11.391Z,76.40
2023-12-11T21:02:39.772Z,76.50
2023-12-11T21:05:08.747Z,76.40
2023-12-11T21:07:38.429Z,76.70
2023-12-11T21:10:09.243Z,76.90
2023-12-11T21:12:37.637Z,76.70
2023-12-11T21:15:06.825Z,76.60
2023-12-11T21:17:37.567Z,76.70
2023-12-11T21:20:07.038Z,76.70
2023-12-11T21:22:35.528Z,76.90
2023-12-11T21:25:04.235Z,77.00
2023-12-11T21:27:34.217Z,77.10
2023-12-11T21:30:06.502Z,77.10
2023-12-11T21:32:34.914Z,77.10
2023-12-11T21:35:03.205Z,76.90
2023-12-11T21:37:31.811Z,76.90
2023-12-11T21:40:00.328Z,77.00
2023-12-11T21:42:28.667Z,77.10
2023-12-11T21:44:59.512Z,77.10
2023-12-11T21:47:29.293Z,77.10
2023-12-11T21:49:58.053Z,77.10
2023-12-11T21:52:26.416Z,77.20
2023-12-11T21:54:54.646Z,77.20
2023-12-11T21:57:22.878Z,77.10
2023-12-11T21:59:51.083Z,77.10
2023-12-11T22:02:20.817Z,77.10
2023-12-11T22:04:49.022Z,77.10
2023-12-11T22:07:17.742Z,77.00
2023-12-11T22:09:46.587Z,76.70
2023-12-11T22:12:14.843Z,76.60
2023-12-11T22:14:45.086Z,76.40
2023-12-11T22:17:13.349Z,76.20
2023-12-11T22:19:42.943Z,76.10
2023-12-11T22:22:11.180Z,76.20
2023-12-11T22:24:40.253Z,76.10
2023-12-11T22:27:08.426Z,76.10
2023-12-11T22:29:37.414Z,76.00
2023-12-11T22:32:06.617Z,76.00
2023-12-11T22:34:34.941Z,75.90
2023-12-11T22:37:04.737Z,75.80
2023-12-11T22:39:33.286Z,75.90
2023-12-11T22:42:01.478Z,75.90
2023-12-11T22:44:29.644Z,75.90
2023-12-11T22:46:57.980Z,76.00
2023-12-11T22:49:26.267Z,75.90
2023-12-11T22:51:54.492Z,75.90
2023-12-11T22:54:24.048Z,75.80
2023-12-11T22:56:52.275Z,75.70
2023-12-11T22:59:20.500Z,75.60
2023-12-11T23:01:49.491Z,75.60
2023-12-11T23:04:17.901Z,75.60
2023-12-11T23:06:46.348Z,75.50
2023-12-11T23:09:14.602Z,75.50
2023-12-11T23:11:44.194Z,75.40
2023-12-11T23:14:12.400Z,75.30
2023-12-11T23:16:40.605Z,75.30
2023-12-11T23:19:08.867Z,75.20
2023-12-11T23:21:37.137Z,75.20
2023-12-11T23:24:05.936Z,75.10
2023-12-11T23:26:34.138Z,75.10
2023-12-11T23:29:03.672Z,74.90
2023-12-11T23:31:31.894Z,74.90
2023-12-11T23:34:00.302Z,74.90
2023-12-11T23:36:28.722Z,74.70
2023-12-11T23:38:56.933Z,74.70
2023-12-11T23:41:25.110Z,74.60
2023-12-11T23:43:54.002Z,74.70
2023-12-11T23:46:23.619Z,74.80
2023-12-11T23:48:52.045Z,74.80
2023-12-11T23:51:20.409Z,74.60
2023-12-11T23:53:48.651Z,74.80
2023-12-11T23:56:16.903Z,74.90
2023-12-11T23:58:46.006Z,74.70
